createdAt,value
2023-07-08T00:03:24.417Z,6.40
2023-07-08T00:07:21.844Z,4.40
2023-07-08T00:11:22.900Z,3.20
2023-07-08T00:15:22.012Z,5.20
2023-07-08T00:19:23.411Z,7.90
2023-07-08T00:23:22.155Z,7.40
2023-07-08T00:27:23.168Z,10.50
2023-07-08T00:31:21.934Z,10.10
2023-07-08T00:35:23.631Z,11.30
2023-07-08T00:39:21.915Z,10.40
2023-07-08T00:43:22.883Z,10.50
2023-07-08T00:47:21.112Z,9.60
2023-07-08T00:51:20.303Z,11.20
2023-07-08T00:55:20.952Z,11.90
2023-07-08T00:59:18.147Z,12.00
2023-07-08T01:03:19.133Z,11.40
2023-07-08T01:07:18.074Z,12.40
2023-07-08T01:11:19.647Z,12.70
2023-07-08T01:15:19.977Z,13.80
2023-07-08T01:19:21.677Z,14.00
2023-07-08T01:23:20.203Z,13.90
2023-07-08T01:27:19.200Z,14.20
2023-07-08T01:31:11.808Z,14.30
2023-07-08T01:35:08.241Z,14.90
2023-07-08T01:39:12.163Z,13.10
2023-07-08T01:46:53.213Z,14.10
2023-07-08T01:50:52.258Z,14.70
2023-07-08T01:54:53.597Z,15.60
2023-07-08T01:58:51.182Z,15.20
2023-07-08T02:02:50.586Z,14.40
2023-07-08T02:06:43.840Z,16.10
2023-07-08T02:10:46.748Z,16.60
2023-07-08T02:14:45.151Z,15.70
2023-07-08T02:18:46.845Z,16.70
2023-07-08T02:22:45.094Z,15.60
2023-07-08T02:26:46.818Z,13.60
2023-07-08T02:30:45.285Z,14.40
2023-07-08T02:34:44.973Z,14.70
2023-07-08T02:38:37.900Z,15.00
2023-07-08T02:42:34.683Z,13.90
2023-07-08T02:46:37.323Z,13.20
2023-07-08T02:50:39.742Z,14.90
2023-07-08T02:54:38.228Z,15.10
2023-07-08T02:58:39.269Z,14.60
2023-07-08T03:02:37.365Z,15.80
2023-07-08T03:06:40.066Z,14.20
2023-07-08T03:10:33.092Z,14.70
2023-07-08T03:14:36.825Z,13.30
2023-07-08T03:18:35.344Z,15.10
2023-07-08T03:22:36.904Z,13.60
2023-07-08T03:26:34.239Z,11.00
2023-07-08T03:30:35.926Z,13.50
2023-07-08T03:34:34.392Z,11.90
2023-07-08T03:38:35.323Z,11.00
2023-07-08T03:42:29.209Z,9.90
2023-07-08T03:46:14.096Z,9.20
2023-07-08T03:50:04.707Z,10.90
2023-07-08T03:54:06.944Z,9.80
2023-07-08T03:58:05.247Z,11.30
2023-07-08T04:02:07.572Z,10.10
2023-07-08T04:06:05.562Z,10.60
2023-07-08T04:10:07.448Z,10.20
2023-07-08T04:14:05.543Z,10.10
2023-07-08T04:18:03.254Z,9.60
2023-07-08T04:22:03.538Z,9.90
2023-07-08T04:26:01.135Z,10.80
2023-07-08T04:29:53.139Z,10.10
2023-07-08T04:33:43.056Z,11.00
2023-07-08T04:37:38.389Z,10.90
2023-07-08T04:41:31.039Z,11.40
2023-07-08T04:45:34.364Z,10.30
2023-07-08T04:49:33.241Z,11.40
2023-07-08T04:53:29.695Z,10.90
2023-07-08T04:57:31.024Z,11.20
2023-07-08T05:01:29.816Z,11.20
2023-07-08T05:05:31.687Z,11.20
2023-07-08T05:09:30.568Z,11.80
2023-07-08T05:13:32.519Z,12.80
2023-07-08T05:17:30.723Z,12.40
2023-07-08T05:21:21.045Z,14.30
2023-07-08T05:25:08.525Z,14.10
2023-07-08T05:28:55.999Z,14.40
2023-07-08T05:32:42.839Z,12.40
2023-07-08T05:36:28.614Z,14.30
2023-07-08T05:40:13.391Z,14.00
2023-07-08T05:44:00.082Z,14.50
2023-07-08T05:47:44.806Z,12.30
2023-07-08T05:51:29.627Z,13.30
2023-07-08T05:55:14.783Z,13.00
2023-07-08T05:59:06.840Z,11.90
2023-07-08T06:02:58.921Z,10.70
2023-07-08T06:06:52.884Z,11.80
2023-07-08T06:10:58.196Z,11.70
2023-07-08T06:14:55.756Z,10.10
2023-07-08T06:18:58.252Z,10.90
2023-07-08T06:22:55.628Z,11.70
2023-07-08T06:26:59.674Z,13.00
2023-07-08T06:30:56.672Z,12.60
2023-07-08T06:34:56.314Z,13.40
2023-07-08T06:38:55.018Z,12.80
2023-07-08T06:42:31.316Z,13.50
2023-07-08T06:45:29.401Z,14.50
2023-07-08T06:48:17.952Z,14.90
2023-07-08T06:51:07.771Z,13.30
2023-07-08T06:53:56.186Z,14.80
2023-07-08T06:56:44.654Z,14.20
2023-07-08T06:59:33.749Z,13.30
2023-07-08T07:02:22.194Z,15.60
2023-07-08T07:05:10.799Z,13.60
2023-07-08T07:07:59.295Z,13.10
2023-07-08T07:10:47.538Z,13.80
2023-07-08T07:13:36.590Z,13.20
2023-07-08T07:16:24.961Z,13.90
2023-07-08T07:19:13.662Z,11.80
2023-07-08T07:22:02.144Z,11.60
2023-07-08T07:24:52.805Z,13.40
2023-07-08T07:27:41.684Z,13.60
2023-07-08T07:30:30.230Z,11.50
2023-07-08T07:33:18.732Z,11.10
2023-07-08T07:36:07.702Z,11.70
2023-07-08T07:38:55.933Z,10.40
2023-07-08T07:41:44.517Z,11.10
2023-07-08T07:44:34.451Z,10.90
2023-07-08T07:47:23.162Z,10.70
2023-07-08T07:50:11.641Z,9.90
2023-07-08T07:53:00.361Z,9.20
2023-07-08T07:55:48.893Z,10.70
2023-07-08T07:58:38.626Z,11.90
2023-07-08T08:01:27.013Z,10.50
2023-07-08T08:04:15.635Z,9.30
2023-07-08T08:07:04.650Z,10.10
2023-07-08T08:09:53.293Z,8.90
2023-07-08T08:12:52.954Z,9.70
2023-07-08T08:15:51.898Z,8.70
2023-07-08T08:18:40.332Z,9.70
2023-07-08T08:21:29.523Z,8.50
2023-07-08T08:24:17.998Z,6.60
2023-07-08T08:27:07.026Z,6.80
2023-07-08T08:29:56.085Z,7.20
2023-07-08T08:32:44.592Z,7.00
2023-07-08T08:35:34.810Z,6.50
2023-07-08T08:38:23.944Z,4.20
2023-07-08T08:41:25.016Z,5.00
2023-07-08T08:44:15.639Z,5.30
2023-07-08T08:47:38.980Z,4.20
2023-07-08T08:50:57.252Z,4.00
2023-07-08T08:53:47.320Z,4.60
2023-07-08T08:56:58.861Z,5.30
2023-07-08T08:59:54.367Z,4.10
2023-07-08T09:03:05.423Z,4.10
2023-07-08T09:06:07.310Z,3.10
2023-07-08T09:09:17.300Z,3.40
2023-07-08T09:12:17.598Z,3.10
2023-07-08T09:15:12.920Z,3.30
2023-07-08T09:18:11.722Z,3.60
2023-07-08T09:21:01.528Z,3.30
2023-07-08T09:23:51.173Z,2.80
2023-07-08T09:26:40.532Z,3.10
2023-07-08T09:29:30.171Z,3.00
2023-07-08T09:32:23.735Z,3.80
2023-07-08T09:35:26.481Z,3.50
2023-07-08T09:38:21.836Z,3.40
2023-07-08T09:41:11.003Z,3.40
2023-07-08T09:44:29.513Z,3.80
2023-07-08T09:47:24.306Z,3.80
2023-07-08T09:50:28.571Z,4.00
2023-07-08T09:53:17.462Z,4.00
2023-07-08T09:56:06.475Z,3.80
2023-07-08T09:58:56.113Z,3.60
2023-07-08T10:01:45.221Z,3.80
2023-07-08T10:04:34.488Z,3.80
2023-07-08T10:07:24.072Z,3.80
2023-07-08T10:10:16.246Z,3.70
2023-07-08T10:13:20.293Z,3.90
2023-07-08T10:16:24.208Z,3.50
2023-07-08T10:19:17.288Z,4.00
2023-07-08T10:22:08.869Z,3.60
2023-07-08T10:25:09.428Z,3.70
2023-07-08T10:28:26.716Z,4.10
2023-07-08T10:31:15.739Z,3.70
2023-07-08T10:34:29.780Z,4.30
2023-07-08T10:37:41.470Z,4.40
2023-07-08T10:40:49.964Z,4.60
2023-07-08T10:43:48.524Z,3.90
2023-07-08T10:47:01.719Z,4.70
2023-07-08T10:50:18.747Z,4.50
2023-07-08T10:53:32.476Z,4.80
2023-07-08T10:56:38.861Z,4.30
2023-07-08T10:59:43.363Z,4.80
2023-07-08T11:03:01.174Z,5.00
2023-07-08T11:06:23.482Z,4.70
2023-07-08T11:09:16.752Z,5.00
2023-07-08T11:12:18.832Z,4.60
2023-07-08T11:15:22.152Z,5.10
2023-07-08T11:18:31.674Z,5.30
2023-07-08T11:21:40.563Z,5.00
2023-07-08T11:24:35.691Z,5.00
2023-07-08T11:27:38.300Z,5.00
2023-07-08T11:30:36.166Z,5.10
2023-07-08T11:33:31.771Z,4.80
2023-07-08T11:36:22.494Z,4.60
2023-07-08T11:39:30.976Z,4.90
2023-07-08T11:42:32.405Z,4.70
2023-07-08T11:45:36.766Z,4.30
2023-07-08T11:48:40.903Z,4.40
2023-07-08T11:51:31.723Z,5.10
2023-07-08T11:54:29.972Z,4.80
2023-07-08T11:57:29.305Z,4.90
2023-07-08T12:00:22.792Z,5.20
2023-07-08T12:03:25.247Z,4.80
2023-07-08T12:06:31.420Z,4.50
2023-07-08T12:09:27.773Z,4.80
2023-07-08T12:12:32.463Z,4.60
2023-07-08T12:15:26.074Z,4.60
2023-07-08T12:18:26.192Z,4.60
2023-07-08T12:21:16.769Z,4.10
2023-07-08T12:24:07.840Z,4.30
2023-07-08T12:26:58.718Z,4.90
2023-07-08T12:29:50.827Z,4.50
2023-07-08T12:32:41.106Z,4.50
2023-07-08T12:35:35.775Z,5.10
2023-07-08T12:38:36.179Z,5.40
2023-07-08T12:41:30.938Z,5.10
2023-07-08T12:44:25.328Z,5.90
2023-07-08T12:47:14.611Z,5.60
2023-07-08T12:50:04.283Z,6.20
2023-07-08T12:52:53.857Z,5.90
2023-07-08T12:55:44.689Z,5.40
2023-07-08T12:58:35.880Z,5.80
2023-07-08T13:01:26.934Z,5.40
2023-07-08T13:04:16.298Z,5.40
2023-07-08T13:07:05.828Z,5.10
2023-07-08T13:09:54.308Z,6.10
2023-07-08T13:12:42.927Z,5.60
2023-07-08T13:15:40.550Z,6.00
2023-07-08T13:18:37.216Z,5.90
2023-07-08T13:21:25.650Z,6.00
2023-07-08T13:24:14.805Z,6.10
2023-07-08T13:27:05.295Z,6.10
2023-07-08T13:29:55.200Z,5.30
2023-07-08T13:32:44.302Z,6.30
2023-07-08T13:35:38.469Z,6.20
2023-07-08T13:38:29.064Z,6.70
2023-07-08T13:41:21.457Z,5.60
2023-07-08T13:44:10.178Z,6.40
2023-07-08T13:47:00.868Z,6.10
2023-07-08T13:49:50.134Z,5.90
2023-07-08T13:52:38.414Z,6.40
2023-07-08T13:55:27.422Z,5.50
2023-07-08T13:58:17.633Z,6.30
2023-07-08T14:01:06.206Z,6.40
2023-07-08T14:03:57.647Z,5.60
2023-07-08T14:06:47.441Z,5.70
2023-07-08T14:09:37.631Z,4.60
2023-07-08T14:12:26.290Z,4.20
2023-07-08T14:15:14.959Z,4.50
2023-07-08T14:18:03.118Z,4.20
2023-07-08T14:20:51.748Z,4.50
2023-07-08T14:23:40.244Z,4.10
2023-07-08T14:26:31.511Z,4.50
2023-07-08T14:29:19.683Z,4.50
2023-07-08T14:32:31.203Z,4.40
2023-07-08T14:35:30.920Z,4.80
2023-07-08T14:38:20.124Z,4.70
2023-07-08T14:41:09.155Z,5.20
2023-07-08T14:44:05.381Z,5.00
2023-07-08T14:46:57.595Z,6.10
2023-07-08T14:49:47.503Z,9.20
2023-07-08T14:52:36.020Z,5.10
2023-07-08T14:55:24.627Z,5.10
2023-07-08T14:58:29.896Z,5.80
2023-07-08T15:01:21.829Z,4.60
2023-07-08T15:04:15.539Z,4.70
2023-07-08T15:07:06.778Z,4.70
2023-07-08T15:09:56.619Z,4.90
2023-07-08T15:12:48.067Z,4.50
2023-07-08T15:15:38.258Z,4.50
2023-07-08T15:18:28.277Z,4.50
2023-07-08T15:21:16.464Z,4.20
2023-07-08T15:24:18.483Z,4.00
2023-07-08T15:27:10.091Z,4.10
2023-07-08T15:29:58.810Z,4.20
2023-07-08T15:32:48.920Z,4.20
2023-07-08T15:35:37.532Z,4.30
2023-07-08T15:38:26.027Z,3.90
2023-07-08T15:41:24.603Z,4.00
2023-07-08T15:44:13.664Z,3.80
2023-07-08T15:47:02.681Z,4.30
2023-07-08T15:49:51.198Z,4.40
2023-07-08T15:52:39.826Z,4.40
2023-07-08T15:55:30.168Z,3.80
2023-07-08T15:58:25.653Z,3.70
2023-07-08T16:01:19.054Z,4.30
2023-07-08T16:04:33.568Z,5.50
2023-07-08T16:07:22.011Z,5.20
2023-07-08T16:10:10.776Z,4.90
2023-07-08T16:12:59.913Z,4.40
2023-07-08T16:15:48.635Z,3.90
2023-07-08T16:18:39.980Z,4.10
2023-07-08T16:21:33.179Z,3.60
2023-07-08T16:24:21.708Z,4.00
2023-07-08T16:27:12.214Z,3.40
2023-07-08T16:32:53.247Z,3.40
2023-07-08T16:35:42.388Z,2.80
2023-07-08T16:38:31.185Z,3.10
2023-07-08T16:41:23.247Z,3.20
2023-07-08T16:44:15.985Z,2.90
2023-07-08T16:47:04.906Z,2.70
2023-07-08T16:49:53.920Z,2.50
2023-07-08T16:52:42.524Z,3.10
2023-07-08T16:55:32.551Z,2.60
2023-07-08T16:58:20.915Z,2.60
2023-07-08T17:01:18.752Z,2.60
2023-07-08T17:04:13.272Z,2.50
2023-07-08T17:07:02.123Z,2.50
2023-07-08T17:09:52.275Z,2.50
2023-07-08T17:12:41.502Z,2.70
2023-07-08T17:15:31.071Z,2.50
2023-07-08T17:18:21.091Z,2.60
2023-07-08T17:21:14.440Z,2.70
2023-07-08T17:24:28.637Z,2.50
2023-07-08T17:28:33.975Z,2.10
2023-07-08T17:32:33.111Z,2.30
2023-07-08T17:36:35.673Z,2.50
2023-07-08T17:40:32.504Z,2.60
2023-07-08T17:44:34.450Z,2.40
2023-07-08T17:48:30.039Z,2.60
2023-07-08T17:52:32.476Z,2.10
2023-07-08T17:56:31.091Z,2.60
2023-07-08T18:00:34.955Z,2.30
2023-07-08T18:04:34.345Z,2.20
2023-07-08T18:08:34.171Z,2.40
2023-07-08T18:12:34.176Z,2.70
2023-07-08T18:16:36.143Z,2.50
2023-07-08T18:20:34.109Z,2.60
2023-07-08T18:24:34.104Z,2.10
2023-07-08T18:28:33.075Z,1.90
2023-07-08T18:32:33.525Z,2.50
2023-07-08T18:36:35.070Z,2.10
2023-07-08T18:40:37.502Z,2.40
2023-07-08T18:43:34.349Z,2.30
2023-07-08T18:46:23.282Z,2.30
2023-07-08T18:49:19.023Z,2.30
2023-07-08T18:52:09.357Z,2.30
2023-07-08T18:54:59.217Z,1.90
2023-07-08T18:57:47.894Z,2.80
2023-07-08T19:00:37.076Z,2.10
2023-07-08T19:03:30.161Z,2.20
2023-07-08T19:06:19.580Z,2.40
2023-07-08T19:09:08.092Z,2.20
2023-07-08T19:11:56.260Z,2.20
2023-07-08T19:15:14.887Z,2.60
2023-07-08T19:18:02.468Z,2.20
2023-07-08T19:20:53.381Z,2.80
2023-07-08T19:23:48.561Z,2.10
2023-07-08T19:26:41.508Z,2.40
2023-07-08T19:29:30.172Z,2.80
2023-07-08T19:32:29.841Z,2.20
2023-07-08T19:35:25.011Z,2.10
2023-07-08T19:38:16.807Z,2.40
2023-07-08T19:41:07.445Z,2.10
2023-07-08T19:43:56.887Z,2.50
2023-07-08T19:46:46.032Z,2.00
2023-07-08T19:49:35.097Z,1.90
2023-07-08T19:52:24.248Z,2.40
2023-07-08T19:55:14.931Z,2.30
2023-07-08T19:58:05.234Z,2.30
2023-07-08T20:00:54.773Z,2.10
2023-07-08T20:03:43.860Z,2.20
2023-07-08T20:06:33.392Z,2.10
2023-07-08T20:09:27.285Z,1.70
2023-07-08T20:12:16.157Z,2.70
2023-07-08T20:15:05.749Z,2.20
2023-07-08T20:17:57.031Z,2.10
2023-07-08T20:20:47.534Z,2.00
2023-07-08T20:26:32.824Z,2.20
2023-07-08T20:29:22.260Z,2.00
2023-07-08T20:32:13.943Z,2.40
2023-07-08T20:35:03.464Z,1.90
2023-07-08T20:37:55.486Z,2.20
2023-07-08T20:40:44.996Z,1.90
2023-07-08T20:43:34.243Z,1.90
2023-07-08T20:46:26.622Z,2.20
2023-07-08T20:49:15.721Z,2.20
2023-07-08T20:52:04.888Z,2.10
2023-07-08T20:54:56.415Z,2.10
2023-07-08T20:57:46.034Z,2.40
2023-07-08T21:00:35.631Z,2.30
2023-07-08T21:03:24.386Z,2.10
2023-07-08T21:06:24.927Z,2.20
2023-07-08T21:09:15.277Z,2.20
2023-07-08T21:12:05.111Z,2.20
2023-07-08T21:14:53.698Z,2.20
2023-07-08T21:17:43.919Z,2.00
2023-07-08T21:20:32.691Z,2.10
2023-07-08T21:23:22.946Z,2.70
2023-07-08T21:26:21.909Z,1.70
2023-07-08T21:29:12.619Z,2.20
2023-07-08T21:32:08.091Z,1.90
2023-07-08T21:34:56.844Z,2.40
2023-07-08T21:37:52.144Z,2.20
2023-07-08T21:40:49.607Z,2.30
2023-07-08T21:43:39.779Z,2.60
2023-07-08T21:46:28.232Z,2.00
2023-07-08T21:49:18.060Z,2.40
2023-07-08T21:52:08.846Z,2.00
2023-07-08T21:54:57.300Z,2.10
2023-07-08T21:57:46.310Z,2.30
2023-07-08T22:00:36.283Z,2.20
2023-07-08T22:03:43.654Z,2.00
2023-07-08T22:06:32.307Z,2.10
2023-07-08T22:09:20.972Z,1.90
2023-07-08T22:12:12.595Z,2.20
2023-07-08T22:15:02.594Z,2.00
2023-07-08T22:17:54.078Z,2.30
2023-07-08T22:20:44.675Z,2.00
2023-07-08T22:23:34.377Z,1.90
2023-07-08T22:26:23.519Z,2.20
2023-07-08T22:29:12.349Z,2.00
2023-07-08T22:32:03.419Z,2.40
2023-07-08T22:34:52.168Z,2.20
2023-07-08T22:37:41.127Z,2.40
2023-07-08T22:40:30.197Z,2.10
2023-07-08T22:43:29.473Z,2.00
2023-07-08T22:46:17.337Z,2.40
2023-07-08T22:49:08.616Z,2.10
2023-07-08T22:51:57.695Z,2.10
2023-07-08T22:54:48.993Z,2.00
2023-07-08T22:57:38.093Z,2.00
2023-07-08T23:00:27.077Z,2.00
2023-07-08T23:03:22.463Z,1.60
2023-07-08T23:06:12.733Z,2.20
2023-07-08T23:09:02.766Z,2.40
2023-07-08T23:11:55.410Z,2.10
2023-07-08T23:14:43.906Z,1.80
2023-07-08T23:17:34.199Z,2.40
2023-07-08T23:20:23.458Z,2.30
2023-07-08T23:23:13.166Z,2.00
2023-07-08T23:26:05.045Z,2.10
2023-07-08T23:28:55.380Z,2.10
2023-07-08T23:31:44.065Z,2.00
2023-07-08T23:34:33.167Z,2.30
2023-07-08T23:37:24.759Z,1.80
2023-07-08T23:40:16.217Z,2.10
2023-07-08T23:43:06.225Z,1.70
2023-07-08T23:45:55.295Z,2.00
2023-07-08T23:48:45.638Z,2.00
2023-07-08T23:51:34.904Z,2.60
2023-07-08T23:54:25.201Z,2.10
2023-07-08T23:57:18.273Z,1.80
